sensor_id;sensor_type;location;lat;lon;timestamp;temperature;humidity
27645;DHT22;15054;57.152;-2.118;2022-07-05T00:00:53;12.20;99.90
27645;DHT22;15054;57.152;-2.118;2022-07-05T00:03:20;12.20;99.90
27645;DHT22;15054;57.152;-2.118;2022-07-05T00:05:48;12.00;99.90
27645;DHT22;15054;57.152;-2.118;2022-07-05T00:08:15;11.90;99.90
27645;DHT22;15054;57.152;-2.118;2022-07-05T00:10:43;11.90;99.90
27645;DHT22;15054;57.152;-2.118;2022-07-05T00:13:10;11.80;99.90
27645;DHT22;15054;57.152;-2.118;2022-07-05T00:15:38;11.70;99.90
27645;DHT22;15054;57.152;-2.118;2022-07-05T00:18:05;11.60;99.90
27645;DHT22;15054;57.152;-2.118;2022-07-05T00:20:33;11.60;99.90
27645;DHT22;15054;57.152;-2.118;2022-07-05T00:23:00;11.50;99.90
27645;DHT22;15054;57.152;-2.118;2022-07-05T00:25:27;11.40;99.90
27645;DHT22;15054;57.152;-2.118;2022-07-05T00:27:55;11.40;99.90
27645;DHT22;15054;57.152;-2.118;2022-07-05T00:30:22;11.30;99.90
27645;DHT22;15054;57.152;-2.118;2022-07-05T00:32:49;11.30;99.90
27645;DHT22;15054;57.152;-2.118;2022-07-05T00:35:16;11.30;99.90
27645;DHT22;15054;57.152;-2.118;2022-07-05T00:37:43;11.20;99.90
27645;DHT22;15054;57.152;-2.118;2022-07-05T00:40:10;11.20;99.90
27645;DHT22;15054;57.152;-2.118;2022-07-05T00:42:38;11.10;99.90
27645;DHT22;15054;57.152;-2.118;2022-07-05T00:45:07;11.10;99.90
27645;DHT22;15054;57.152;-2.118;2022-07-05T00:47:35;11.10;99.90
27645;DHT22;15054;57.152;-2.118;2022-07-05T00:50:02;11.10;99.90
27645;DHT22;15054;57.152;-2.118;2022-07-05T00:52:30;11.10;99.90
27645;DHT22;15054;57.152;-2.118;2022-07-05T00:54:58;11.10;99.90
27645;DHT22;15054;57.152;-2.118;2022-07-05T00:57:26;11.10;99.90
27645;DHT22;15054;57.152;-2.118;2022-07-05T00:59:53;11.10;99.90
27645;DHT22;15054;57.152;-2.118;2022-07-05T01:02:20;11.20;99.90
27645;DHT22;15054;57.152;-2.118;2022-07-05T01:04:51;11.20;99.90
27645;DHT22;15054;57.152;-2.118;2022-07-05T01:07:20;11.20;99.90
27645;DHT22;15054;57.152;-2.118;2022-07-05T01:09:48;11.30;99.90
27645;DHT22;15054;57.152;-2.118;2022-07-05T01:12:16;11.30;99.90
27645;DHT22;15054;57.152;-2.118;2022-07-05T01:14:44;11.30;99.90
27645;DHT22;15054;57.152;-2.118;2022-07-05T01:17:13;11.30;99.90
27645;DHT22;15054;57.152;-2.118;2022-07-05T01:19:41;11.30;99.90
27645;DHT22;15054;57.152;-2.118;2022-07-05T01:22:16;11.30;99.90
27645;DHT22;15054;57.152;-2.118;2022-07-05T01:24:49;11.30;99.90
27645;DHT22;15054;57.152;-2.118;2022-07-05T01:27:19;11.30;99.90
27645;DHT22;15054;57.152;-2.118;2022-07-05T01:29:47;11.40;99.90
27645;DHT22;15054;57.152;-2.118;2022-07-05T01:32:16;11.40;99.90
27645;DHT22;15054;57.152;-2.118;2022-07-05T01:34:44;11.40;99.90
27645;DHT22;15054;57.152;-2.118;2022-07-05T01:37:12;11.40;99.90
27645;DHT22;15054;57.152;-2.118;2022-07-05T01:39:39;11.40;99.90
27645;DHT22;15054;57.152;-2.118;2022-07-05T01:42:07;11.40;99.90
27645;DHT22;15054;57.152;-2.118;2022-07-05T01:44:34;11.40;99.90
27645;DHT22;15054;57.152;-2.118;2022-07-05T01:50:16;11.40;99.90
27645;DHT22;15054;57.152;-2.118;2022-07-05T01:52:47;11.40;99.90
27645;DHT22;15054;57.152;-2.118;2022-07-05T01:55:15;11.40;99.90
27645;DHT22;15054;57.152;-2.118;2022-07-05T01:57:43;11.30;99.90
27645;DHT22;15054;57.152;-2.118;2022-07-05T02:00:10;11.40;99.90
27645;DHT22;15054;57.152;-2.118;2022-07-05T02:02:41;11.40;99.90
27645;DHT22;15054;57.152;-2.118;2022-07-05T02:05:09;11.40;99.90
27645;DHT22;15054;57.152;-2.118;2022-07-05T02:07:49;11.40;99.90
27645;DHT22;15054;57.152;-2.118;2022-07-05T02:10:17;11.40;99.90
27645;DHT22;15054;57.152;-2.118;2022-07-05T02:12:44;11.30;99.90
27645;DHT22;15054;57.152;-2.118;2022-07-05T02:15:12;11.40;99.90
27645;DHT22;15054;57.152;-2.118;2022-07-05T02:17:39;11.30;99.90
27645;DHT22;15054;57.152;-2.118;2022-07-05T02:20:06;11.40;99.90
27645;DHT22;15054;57.152;-2.118;2022-07-05T02:22:34;11.30;99.90
27645;DHT22;15054;57.152;-2.118;2022-07-05T02:25:02;11.30;99.90
27645;DHT22;15054;57.152;-2.118;2022-07-05T02:27:29;11.30;99.90
27645;DHT22;15054;57.152;-2.118;2022-07-05T02:29:57;11.30;99.90
27645;DHT22;15054;57.152;-2.118;2022-07-05T02:32:34;11.30;99.90
27645;DHT22;15054;57.152;-2.118;2022-07-05T02:35:05;11.30;99.90
27645;DHT22;15054;57.152;-2.118;2022-07-05T02:37:34;11.30;99.90
27645;DHT22;15054;57.152;-2.118;2022-07-05T02:40:05;11.30;99.90
27645;DHT22;15054;57.152;-2.118;2022-07-05T02:42:37;11.30;99.90
27645;DHT22;15054;57.152;-2.118;2022-07-05T02:45:05;11.30;99.90
27645;DHT22;15054;57.152;-2.118;2022-07-05T02:47:34;11.30;99.90
27645;DHT22;15054;57.152;-2.118;2022-07-05T02:50:08;11.30;99.90
27645;DHT22;15054;57.152;-2.118;2022-07-05T02:52:40;11.30;99.90
27645;DHT22;15054;57.152;-2.118;2022-07-05T02:55:09;11.30;99.90
27645;DHT22;15054;57.152;-2.118;2022-07-05T02:57:37;11.30;99.90
27645;DHT22;15054;57.152;-2.118;2022-07-05T03:00:08;11.30;99.90
27645;DHT22;15054;57.152;-2.118;2022-07-05T03:02:43;11.30;99.90
27645;DHT22;15054;57.152;-2.118;2022-07-05T03:05:11;11.30;99.90
27645;DHT22;15054;57.152;-2.118;2022-07-05T03:07:42;11.30;99.90
27645;DHT22;15054;57.152;-2.118;2022-07-05T03:10:09;11.30;99.90
27645;DHT22;15054;57.152;-2.118;2022-07-05T03:12:37;11.30;99.90
27645;DHT22;15054;57.152;-2.118;2022-07-05T03:15:09;11.30;99.90
27645;DHT22;15054;57.152;-2.118;2022-07-05T03:17:38;11.30;99.90
27645;DHT22;15054;57.152;-2.118;2022-07-05T03:20:06;11.40;99.90
27645;DHT22;15054;57.152;-2.118;2022-07-05T03:22:34;11.30;99.90
27645;DHT22;15054;57.152;-2.118;2022-07-05T03:25:01;11.30;99.90
27645;DHT22;15054;57.152;-2.118;2022-07-05T03:27:31;11.30;99.90
27645;DHT22;15054;57.152;-2.118;2022-07-05T03:29:59;11.30;99.90
27645;DHT22;15054;57.152;-2.118;2022-07-05T03:32:28;11.30;99.90
27645;DHT22;15054;57.152;-2.118;2022-07-05T03:34:56;11.30;99.90
27645;DHT22;15054;57.152;-2.118;2022-07-05T03:37:23;11.30;99.90
27645;DHT22;15054;57.152;-2.118;2022-07-05T03:39:52;11.20;99.90
27645;DHT22;15054;57.152;-2.118;2022-07-05T03:42:19;11.20;99.90
27645;DHT22;15054;57.152;-2.118;2022-07-05T03:44:46;11.30;99.90
27645;DHT22;15054;57.152;-2.118;2022-07-05T03:47:14;11.20;99.90
27645;DHT22;15054;57.152;-2.118;2022-07-05T03:49:44;11.20;99.90
27645;DHT22;15054;57.152;-2.118;2022-07-05T03:52:12;11.20;99.90
27645;DHT22;15054;57.152;-2.118;2022-07-05T03:54:40;11.20;99.90
27645;DHT22;15054;57.152;-2.118;2022-07-05T03:57:08;11.30;99.90
27645;DHT22;15054;57.152;-2.118;2022-07-05T03:59:35;11.30;99.90
27645;DHT22;15054;57.152;-2.118;2022-07-05T04:02:03;11.30;99.90
27645;DHT22;15054;57.152;-2.118;2022-07-05T04:04:30;11.40;99.90
27645;DHT22;15054;57.152;-2.118;2022-07-05T04:06:58;11.40;99.90
27645;DHT22;15054;57.152;-2.118;2022-07-05T04:09:25;11.40;99.90
27645;DHT22;15054;57.152;-2.118;2022-07-05T04:11:54;11.40;99.90
27645;DHT22;15054;57.152;-2.118;2022-07-05T04:14:22;11.40;99.90
27645;DHT22;15054;57.152;-2.118;2022-07-05T04:16:51;11.50;99.90
27645;DHT22;15054;57.152;-2.118;2022-07-05T04:19:18;11.40;99.90
27645;DHT22;15054;57.152;-2.118;2022-07-05T04:21:47;11.50;99.90
27645;DHT22;15054;57.152;-2.118;2022-07-05T04:24:14;11.60;99.90
27645;DHT22;15054;57.152;-2.118;2022-07-05T04:26:44;11.60;99.90
27645;DHT22;15054;57.152;-2.118;2022-07-05T04:29:12;11.60;99.90
27645;DHT22;15054;57.152;-2.118;2022-07-05T04:31:39;11.70;99.90
27645;DHT22;15054;57.152;-2.118;2022-07-05T04:34:07;11.60;99.90
27645;DHT22;15054;57.152;-2.118;2022-07-05T04:36:38;11.60;99.90
27645;DHT22;15054;57.152;-2.118;2022-07-05T04:39:08;11.60;99.90
27645;DHT22;15054;57.152;-2.118;2022-07-05T04:41:40;11.60;99.90
27645;DHT22;15054;57.152;-2.118;2022-07-05T04:44:08;11.50;99.90
27645;DHT22;15054;57.152;-2.118;2022-07-05T04:46:38;11.50;99.90
27645;DHT22;15054;57.152;-2.118;2022-07-05T04:49:06;11.60;99.90
27645;DHT22;15054;57.152;-2.118;2022-07-05T04:51:33;11.60;99.90
27645;DHT22;15054;57.152;-2.118;2022-07-05T04:54:00;11.70;99.90
27645;DHT22;15054;57.152;-2.118;2022-07-05T04:56:27;11.70;99.90
27645;DHT22;15054;57.152;-2.118;2022-07-05T04:58:54;11.70;99.90
27645;DHT22;15054;57.152;-2.118;2022-07-05T05:01:22;11.80;99.90
27645;DHT22;15054;57.152;-2.118;2022-07-05T05:03:49;11.80;99.90
27645;DHT22;15054;57.152;-2.118;2022-07-05T05:06:16;11.80;99.90
27645;DHT22;15054;57.152;-2.118;2022-07-05T05:08:45;11.80;99.90
27645;DHT22;15054;57.152;-2.118;2022-07-05T05:11:12;11.80;99.90
27645;DHT22;15054;57.152;-2.118;2022-07-05T05:13:39;12.00;99.90
27645;DHT22;15054;57.152;-2.118;2022-07-05T05:16:07;12.00;99.90
27645;DHT22;15054;57.152;-2.118;2022-07-05T05:18:34;12.20;99.90
27645;DHT22;15054;57.152;-2.118;2022-07-05T05:21:01;12.30;99.90
27645;DHT22;15054;57.152;-2.118;2022-07-05T05:23:28;12.60;99.90
27645;DHT22;15054;57.152;-2.118;2022-07-05T05:25:55;13.40;99.90
27645;DHT22;15054;57.152;-2.118;2022-07-05T05:28:22;14.00;99.90
27645;DHT22;15054;57.152;-2.118;2022-07-05T05:30:50;13.80;99.90
27645;DHT22;15054;57.152;-2.118;2022-07-05T05:33:17;14.30;99.90
27645;DHT22;15054;57.152;-2.118;2022-07-05T05:35:44;14.20;99.90
27645;DHT22;15054;57.152;-2.118;2022-07-05T05:38:11;13.70;99.90
27645;DHT22;15054;57.152;-2.118;2022-07-05T05:40:38;13.30;99.90
27645;DHT22;15054;57.152;-2.118;2022-07-05T05:43:08;13.10;99.90
27645;DHT22;15054;57.152;-2.118;2022-07-05T05:45:35;13.00;99.90
27645;DHT22;15054;57.152;-2.118;2022-07-05T05:48:02;13.00;99.90
27645;DHT22;15054;57.152;-2.118;2022-07-05T05:50:34;13.40;99.90
27645;DHT22;15054;57.152;-2.118;2022-07-05T05:53:03;13.70;99.90
27645;DHT22;15054;57.152;-2.118;2022-07-05T05:55:31;13.60;99.90
27645;DHT22;15054;57.152;-2.118;2022-07-05T05:58:19;13.40;99.90
27645;DHT22;15054;57.152;-2.118;2022-07-05T06:00:47;13.30;99.90
27645;DHT22;15054;57.152;-2.118;2022-07-05T06:03:15;13.60;99.90
27645;DHT22;15054;57.152;-2.118;2022-07-05T06:05:43;14.10;99.90
27645;DHT22;15054;57.152;-2.118;2022-07-05T06:08:10;14.10;99.90
27645;DHT22;15054;57.152;-2.118;2022-07-05T06:10:38;13.70;99.90
27645;DHT22;15054;57.152;-2.118;2022-07-05T06:13:09;13.40;99.90
27645;DHT22;15054;57.152;-2.118;2022-07-05T06:15:38;13.20;99.90
27645;DHT22;15054;57.152;-2.118;2022-07-05T06:18:07;13.10;99.90
27645;DHT22;15054;57.152;-2.118;2022-07-05T06:20:36;13.00;99.90
27645;DHT22;15054;57.152;-2.118;2022-07-05T06:23:06;12.90;99.90
27645;DHT22;15054;57.152;-2.118;2022-07-05T06:25:36;12.90;99.90
27645;DHT22;15054;57.152;-2.118;2022-07-05T06:28:06;13.00;99.90
27645;DHT22;15054;57.152;-2.118;2022-07-05T06:30:37;13.20;99.90
27645;DHT22;15054;57.152;-2.118;2022-07-05T06:33:05;13.40;99.90
27645;DHT22;15054;57.152;-2.118;2022-07-05T06:35:33;13.60;99.90
27645;DHT22;15054;57.152;-2.118;2022-07-05T06:38:05;13.80;99.90
27645;DHT22;15054;57.152;-2.118;2022-07-05T06:40:37;13.80;99.90
27645;DHT22;15054;57.152;-2.118;2022-07-05T06:43:06;13.70;99.90
27645;DHT22;15054;57.152;-2.118;2022-07-05T06:45:52;13.70;99.90
27645;DHT22;15054;57.152;-2.118;2022-07-05T06:48:19;13.50;99.90
27645;DHT22;15054;57.152;-2.118;2022-07-05T06:50:46;13.70;99.90
27645;DHT22;15054;57.152;-2.118;2022-07-05T06:53:14;14.10;99.90
27645;DHT22;15054;57.152;-2.118;2022-07-05T06:55:41;14.40;99.90
27645;DHT22;15054;57.152;-2.118;2022-07-05T06:58:23;14.30;99.90
27645;DHT22;15054;57.152;-2.118;2022-07-05T07:00:51;14.20;99.90
27645;DHT22;15054;57.152;-2.118;2022-07-05T07:03:38;14.20;99.90
27645;DHT22;15054;57.152;-2.118;2022-07-05T07:06:25;14.20;99.90
27645;DHT22;15054;57.152;-2.118;2022-07-05T07:08:53;14.10;99.90
27645;DHT22;15054;57.152;-2.118;2022-07-05T07:11:37;13.80;99.90
27645;DHT22;15054;57.152;-2.118;2022-07-05T07:14:04;13.70;99.90
27645;DHT22;15054;57.152;-2.118;2022-07-05T07:16:32;13.70;99.90
27645;DHT22;15054;57.152;-2.118;2022-07-05T07:18:59;14.20;99.90
27645;DHT22;15054;57.152;-2.118;2022-07-05T07:21:38;14.50;99.90
27645;DHT22;15054;57.152;-2.118;2022-07-05T07:24:06;14.70;99.90
27645;DHT22;15054;57.152;-2.118;2022-07-05T07:26:34;14.70;99.90
27645;DHT22;15054;57.152;-2.118;2022-07-05T07:29:22;14.90;99.90
27645;DHT22;15054;57.152;-2.118;2022-07-05T07:31:49;15.20;99.90
27645;DHT22;15054;57.152;-2.118;2022-07-05T07:34:16;15.30;99.90
27645;DHT22;15054;57.152;-2.118;2022-07-05T07:36:43;15.20;99.90
27645;DHT22;15054;57.152;-2.118;2022-07-05T07:39:10;15.00;99.90
27645;DHT22;15054;57.152;-2.118;2022-07-05T07:41:38;14.70;99.90
27645;DHT22;15054;57.152;-2.118;2022-07-05T07:44:06;14.50;99.90
27645;DHT22;15054;57.152;-2.118;2022-07-05T07:46:33;14.30;99.90
27645;DHT22;15054;57.152;-2.118;2022-07-05T07:49:01;14.10;99.90
27645;DHT22;15054;57.152;-2.118;2022-07-05T07:51:29;13.90;99.90
27645;DHT22;15054;57.152;-2.118;2022-07-05T07:53:57;13.90;99.90
27645;DHT22;15054;57.152;-2.118;2022-07-05T07:56:34;13.90;99.90
27645;DHT22;15054;57.152;-2.118;2022-07-05T07:59:02;14.10;99.90
27645;DHT22;15054;57.152;-2.118;2022-07-05T08:01:29;14.20;99.90
27645;DHT22;15054;57.152;-2.118;2022-07-05T08:03:58;14.20;99.90
27645;DHT22;15054;57.152;-2.118;2022-07-05T08:06:25;14.00;99.90
27645;DHT22;15054;57.152;-2.118;2022-07-05T08:08:52;13.90;99.90
27645;DHT22;15054;57.152;-2.118;2022-07-05T08:11:20;13.90;99.90
27645;DHT22;15054;57.152;-2.118;2022-07-05T08:13:47;14.00;99.90
27645;DHT22;15054;57.152;-2.118;2022-07-05T08:16:14;13.80;99.90
27645;DHT22;15054;57.152;-2.118;2022-07-05T08:18:42;13.60;99.90
27645;DHT22;15054;57.152;-2.118;2022-07-05T08:21:28;13.40;99.90
27645;DHT22;15054;57.152;-2.118;2022-07-05T08:24:01;13.30;99.90
27645;DHT22;15054;57.152;-2.118;2022-07-05T08:26:29;13.10;99.90
27645;DHT22;15054;57.152;-2.118;2022-07-05T08:29:00;13.00;99.90
27645;DHT22;15054;57.152;-2.118;2022-07-05T08:31:48;13.10;99.90
27645;DHT22;15054;57.152;-2.118;2022-07-05T08:34:16;13.50;99.90
27645;DHT22;15054;57.152;-2.118;2022-07-05T08:36:45;14.00;99.90
27645;DHT22;15054;57.152;-2.118;2022-07-05T08:39:14;14.60;99.90
27645;DHT22;15054;57.152;-2.118;2022-07-05T08:41:42;15.00;99.90
27645;DHT22;15054;57.152;-2.118;2022-07-05T08:44:14;15.20;99.90
27645;DHT22;15054;57.152;-2.118;2022-07-05T08:46:43;15.10;99.90
27645;DHT22;15054;57.152;-2.118;2022-07-05T08:49:13;14.90;99.90
27645;DHT22;15054;57.152;-2.118;2022-07-05T08:51:42;14.80;99.90
27645;DHT22;15054;57.152;-2.118;2022-07-05T08:54:10;14.80;99.90
27645;DHT22;15054;57.152;-2.118;2022-07-05T08:56:43;14.90;99.90
27645;DHT22;15054;57.152;-2.118;2022-07-05T08:59:31;14.80;99.90
27645;DHT22;15054;57.152;-2.118;2022-07-05T09:01:59;14.80;99.90
27645;DHT22;15054;57.152;-2.118;2022-07-05T09:04:35;15.00;99.90
27645;DHT22;15054;57.152;-2.118;2022-07-05T09:07:05;15.60;99.90
27645;DHT22;15054;57.152;-2.118;2022-07-05T09:09:38;15.90;99.90
27645;DHT22;15054;57.152;-2.118;2022-07-05T09:12:12;15.80;99.90
27645;DHT22;15054;57.152;-2.118;2022-07-05T09:14:52;16.30;99.90
27645;DHT22;15054;57.152;-2.118;2022-07-05T09:17:20;16.70;99.90
27645;DHT22;15054;57.152;-2.118;2022-07-05T09:20:07;16.60;99.90
27645;DHT22;15054;57.152;-2.118;2022-07-05T09:25:16;16.80;99.90
27645;DHT22;15054;57.152;-2.118;2022-07-05T09:27:55;16.70;99.90
27645;DHT22;15054;57.152;-2.118;2022-07-05T09:33:13;16.40;99.90
27645;DHT22;15054;57.152;-2.118;2022-07-05T09:35:59;16.70;99.90
27645;DHT22;15054;57.152;-2.118;2022-07-05T09:38:29;16.60;99.90
27645;DHT22;15054;57.152;-2.118;2022-07-05T09:40:58;16.30;99.90
27645;DHT22;15054;57.152;-2.118;2022-07-05T09:43:29;16.30;99.90
27645;DHT22;15054;57.152;-2.118;2022-07-05T09:46:04;16.60;99.90
27645;DHT22;15054;57.152;-2.118;2022-07-05T09:48:33;17.00;99.90
27645;DHT22;15054;57.152;-2.118;2022-07-05T09:51:11;17.00;99.90
27645;DHT22;15054;57.152;-2.118;2022-07-05T09:54:00;17.20;99.90
27645;DHT22;15054;57.152;-2.118;2022-07-05T09:56:46;17.60;99.90
27645;DHT22;15054;57.152;-2.118;2022-07-05T09:59:20;17.60;99.90
27645;DHT22;15054;57.152;-2.118;2022-07-05T10:01:49;17.50;99.90
27645;DHT22;15054;57.152;-2.118;2022-07-05T10:04:17;17.10;99.90
27645;DHT22;15054;57.152;-2.118;2022-07-05T10:06:45;16.50;99.90
27645;DHT22;15054;57.152;-2.118;2022-07-05T10:09:13;16.40;99.90
27645;DHT22;15054;57.152;-2.118;2022-07-05T10:11:44;16.50;99.90
27645;DHT22;15054;57.152;-2.118;2022-07-05T10:14:15;16.60;99.90
27645;DHT22;15054;57.152;-2.118;2022-07-05T10:16:56;16.40;99.90
27645;DHT22;15054;57.152;-2.118;2022-07-05T10:19:29;16.70;99.90
27645;DHT22;15054;57.152;-2.118;2022-07-05T10:21:58;17.20;99.90
27645;DHT22;15054;57.152;-2.118;2022-07-05T10:24:46;17.40;99.90
27645;DHT22;15054;57.152;-2.118;2022-07-05T10:27:17;17.40;99.90
27645;DHT22;15054;57.152;-2.118;2022-07-05T10:29:45;17.40;99.90
27645;DHT22;15054;57.152;-2.118;2022-07-05T10:32:15;17.50;99.90
27645;DHT22;15054;57.152;-2.118;2022-07-05T10:34:44;17.60;99.90
27645;DHT22;15054;57.152;-2.118;2022-07-05T10:37:27;17.90;99.90
27645;DHT22;15054;57.152;-2.118;2022-07-05T10:39:58;17.80;99.90
27645;DHT22;15054;57.152;-2.118;2022-07-05T10:42:28;17.70;99.90
27645;DHT22;15054;57.152;-2.118;2022-07-05T10:44:56;17.40;99.90
27645;DHT22;15054;57.152;-2.118;2022-07-05T10:47:24;17.10;99.90
27645;DHT22;15054;57.152;-2.118;2022-07-05T10:50:04;16.90;99.90
27645;DHT22;15054;57.152;-2.118;2022-07-05T10:52:32;16.90;99.90
27645;DHT22;15054;57.152;-2.118;2022-07-05T10:55:19;16.80;99.90
27645;DHT22;15054;57.152;-2.118;2022-07-05T10:58:18;16.60;99.90
27645;DHT22;15054;57.152;-2.118;2022-07-05T11:00:47;16.40;99.90
27645;DHT22;15054;57.152;-2.118;2022-07-05T11:03:40;16.60;99.90
27645;DHT22;15054;57.152;-2.118;2022-07-05T11:06:08;16.50;99.90
27645;DHT22;15054;57.152;-2.118;2022-07-05T11:11:31;16.30;99.90
27645;DHT22;15054;57.152;-2.118;2022-07-05T11:17:09;16.20;99.90
27645;DHT22;15054;57.152;-2.118;2022-07-05T11:20:45;16.10;99.90
27645;DHT22;15054;57.152;-2.118;2022-07-05T11:23:09;16.20;99.90
27645;DHT22;15054;57.152;-2.118;2022-07-05T11:25:45;16.30;99.90
27645;DHT22;15054;57.152;-2.118;2022-07-05T11:28:18;16.20;99.90
27645;DHT22;15054;57.152;-2.118;2022-07-05T11:30:48;16.20;99.90
27645;DHT22;15054;57.152;-2.118;2022-07-05T11:33:34;16.30;99.90
27645;DHT22;15054;57.152;-2.118;2022-07-05T11:36:19;16.50;99.90
27645;DHT22;15054;57.152;-2.118;2022-07-05T11:39:15;17.00;99.90
27645;DHT22;15054;57.152;-2.118;2022-07-05T11:41:48;17.80;99.90
27645;DHT22;15054;57.152;-2.118;2022-07-05T11:44:16;17.70;99.90
27645;DHT22;15054;57.152;-2.118;2022-07-05T11:46:46;17.50;99.90
27645;DHT22;15054;57.152;-2.118;2022-07-05T11:49:24;17.30;99.90
27645;DHT22;15054;57.152;-2.118;2022-07-05T11:51:54;17.30;99.90
27645;DHT22;15054;57.152;-2.118;2022-07-05T11:57:51;17.10;99.90
27645;DHT22;15054;57.152;-2.118;2022-07-05T12:00:29;17.30;99.90
27645;DHT22;15054;57.152;-2.118;2022-07-05T12:02:58;17.40;99.90
27645;DHT22;15054;57.152;-2.118;2022-07-05T12:05:31;17.50;99.90
27645;DHT22;15054;57.152;-2.118;2022-07-05T12:08:08;17.30;99.90
27645;DHT22;15054;57.152;-2.118;2022-07-05T12:10:46;17.30;99.90
27645;DHT22;15054;57.152;-2.118;2022-07-05T12:13:51;17.00;99.90
27645;DHT22;15054;57.152;-2.118;2022-07-05T12:16:19;16.90;99.90
27645;DHT22;15054;57.152;-2.118;2022-07-05T12:21:22;16.60;99.90
27645;DHT22;15054;57.152;-2.118;2022-07-05T12:23:51;16.70;99.90
27645;DHT22;15054;57.152;-2.118;2022-07-05T12:26:20;17.20;99.90
27645;DHT22;15054;57.152;-2.118;2022-07-05T12:28:49;17.60;99.90
27645;DHT22;15054;57.152;-2.118;2022-07-05T12:33:50;18.10;99.90
27645;DHT22;15054;57.152;-2.118;2022-07-05T12:36:28;18.20;99.90
27645;DHT22;15054;57.152;-2.118;2022-07-05T12:38:59;18.10;99.90
27645;DHT22;15054;57.152;-2.118;2022-07-05T12:41:26;17.90;99.90
27645;DHT22;15054;57.152;-2.118;2022-07-05T12:43:55;17.90;99.90
27645;DHT22;15054;57.152;-2.118;2022-07-05T12:46:41;17.90;99.90
27645;DHT22;15054;57.152;-2.118;2022-07-05T12:49:19;18.30;99.90
27645;DHT22;15054;57.152;-2.118;2022-07-05T12:51:53;18.30;99.90
27645;DHT22;15054;57.152;-2.118;2022-07-05T12:54:22;18.10;99.90
27645;DHT22;15054;57.152;-2.118;2022-07-05T12:57:14;17.90;99.90
27645;DHT22;15054;57.152;-2.118;2022-07-05T13:00:07;17.70;99.90
27645;DHT22;15054;57.152;-2.118;2022-07-05T13:02:41;17.30;99.90
27645;DHT22;15054;57.152;-2.118;2022-07-05T13:05:23;16.90;99.90
27645;DHT22;15054;57.152;-2.118;2022-07-05T13:07:52;16.60;99.90
27645;DHT22;15054;57.152;-2.118;2022-07-05T13:10:26;16.60;99.90
27645;DHT22;15054;57.152;-2.118;2022-07-05T13:12:58;16.50;99.90
27645;DHT22;15054;57.152;-2.118;2022-07-05T13:15:25;16.50;99.90
27645;DHT22;15054;57.152;-2.118;2022-07-05T13:17:58;16.50;99.90
27645;DHT22;15054;57.152;-2.118;2022-07-05T13:20:28;16.70;99.90
27645;DHT22;15054;57.152;-2.118;2022-07-05T13:22:58;16.80;99.90
27645;DHT22;15054;57.152;-2.118;2022-07-05T13:25:30;16.90;99.90
27645;DHT22;15054;57.152;-2.118;2022-07-05T13:28:01;17.10;99.90
27645;DHT22;15054;57.152;-2.118;2022-07-05T13:30:28;17.40;99.90
27645;DHT22;15054;57.152;-2.118;2022-07-05T13:32:55;17.60;99.90
27645;DHT22;15054;57.152;-2.118;2022-07-05T13:35:22;17.90;99.90
27645;DHT22;15054;57.152;-2.118;2022-07-05T13:37:56;18.00;99.90
27645;DHT22;15054;57.152;-2.118;2022-07-05T13:40:29;18.10;99.90
27645;DHT22;15054;57.152;-2.118;2022-07-05T13:43:07;18.30;99.90
27645;DHT22;15054;57.152;-2.118;2022-07-05T13:45:36;18.60;99.90
27645;DHT22;15054;57.152;-2.118;2022-07-05T13:48:18;18.90;99.90
27645;DHT22;15054;57.152;-2.118;2022-07-05T13:50:48;18.60;99.90
27645;DHT22;15054;57.152;-2.118;2022-07-05T13:53:28;18.60;99.90
27645;DHT22;15054;57.152;-2.118;2022-07-05T13:55:58;18.60;99.90
27645;DHT22;15054;57.152;-2.118;2022-07-05T13:58:26;18.20;99.90
27645;DHT22;15054;57.152;-2.118;2022-07-05T14:00:53;18.00;99.90
27645;DHT22;15054;57.152;-2.118;2022-07-05T14:03:21;18.00;99.90
27645;DHT22;15054;57.152;-2.118;2022-07-05T14:05:51;18.10;99.90
27645;DHT22;15054;57.152;-2.118;2022-07-05T14:08:50;18.30;99.90
27645;DHT22;15054;57.152;-2.118;2022-07-05T14:11:21;18.40;99.90
27645;DHT22;15054;57.152;-2.118;2022-07-05T14:13:50;18.40;99.90
27645;DHT22;15054;57.152;-2.118;2022-07-05T14:20:48;18.40;99.90
27645;DHT22;15054;57.152;-2.118;2022-07-05T14:23:18;18.80;99.90
27645;DHT22;15054;57.152;-2.118;2022-07-05T14:25:49;18.80;99.90
27645;DHT22;15054;57.152;-2.118;2022-07-05T14:28:18;18.70;99.90
27645;DHT22;15054;57.152;-2.118;2022-07-05T14:30:48;18.60;99.90
27645;DHT22;15054;57.152;-2.118;2022-07-05T14:33:18;18.40;99.90
27645;DHT22;15054;57.152;-2.118;2022-07-05T14:35:48;18.20;99.90
27645;DHT22;15054;57.152;-2.118;2022-07-05T14:38:17;18.20;99.90
27645;DHT22;15054;57.152;-2.118;2022-07-05T14:40:47;18.30;99.90
27645;DHT22;15054;57.152;-2.118;2022-07-05T14:43:16;18.30;99.90
27645;DHT22;15054;57.152;-2.118;2022-07-05T14:45:47;18.40;99.90
27645;DHT22;15054;57.152;-2.118;2022-07-05T14:48:17;18.40;99.90
27645;DHT22;15054;57.152;-2.118;2022-07-05T14:50:47;18.50;99.90
27645;DHT22;15054;57.152;-2.118;2022-07-05T14:53:24;18.50;99.90
27645;DHT22;15054;57.152;-2.118;2022-07-05T14:55:54;18.60;99.90
27645;DHT22;15054;57.152;-2.118;2022-07-05T14:58:24;18.40;99.90
27645;DHT22;15054;57.152;-2.118;2022-07-05T15:00:51;18.60;99.90
27645;DHT22;15054;57.152;-2.118;2022-07-05T15:03:19;18.60;99.90
27645;DHT22;15054;57.152;-2.118;2022-07-05T15:05:50;18.40;99.90
27645;DHT22;15054;57.152;-2.118;2022-07-05T15:08:21;18.20;99.90
27645;DHT22;15054;57.152;-2.118;2022-07-05T15:10:49;18.10;99.90
27645;DHT22;15054;57.152;-2.118;2022-07-05T15:13:21;18.00;99.90
27645;DHT22;15054;57.152;-2.118;2022-07-05T15:15:53;17.80;99.90
27645;DHT22;15054;57.152;-2.118;2022-07-05T15:18:21;17.80;99.90
27645;DHT22;15054;57.152;-2.118;2022-07-05T15:20:50;17.60;99.90
27645;DHT22;15054;57.152;-2.118;2022-07-05T15:23:29;17.40;99.90
27645;DHT22;15054;57.152;-2.118;2022-07-05T15:26:03;17.20;99.90
27645;DHT22;15054;57.152;-2.118;2022-07-05T15:28:30;17.00;99.90
27645;DHT22;15054;57.152;-2.118;2022-07-05T15:30:58;16.90;99.90
27645;DHT22;15054;57.152;-2.118;2022-07-05T15:33:25;16.60;99.90
27645;DHT22;15054;57.152;-2.118;2022-07-05T15:35:59;16.30;99.90
27645;DHT22;15054;57.152;-2.118;2022-07-05T15:38:27;16.10;99.90
27645;DHT22;15054;57.152;-2.118;2022-07-05T15:40:55;16.10;99.90
27645;DHT22;15054;57.152;-2.118;2022-07-05T15:43:24;16.20;99.90
27645;DHT22;15054;57.152;-2.118;2022-07-05T15:45:55;16.30;99.90
27645;DHT22;15054;57.152;-2.118;2022-07-05T15:48:23;16.50;99.90
27645;DHT22;15054;57.152;-2.118;2022-07-05T15:50:50;16.70;99.90
27645;DHT22;15054;57.152;-2.118;2022-07-05T15:53:31;17.00;99.90
27645;DHT22;15054;57.152;-2.118;2022-07-05T15:55:58;17.00;99.90
27645;DHT22;15054;57.152;-2.118;2022-07-05T15:58:33;17.10;99.90
27645;DHT22;15054;57.152;-2.118;2022-07-05T16:01:01;16.90;99.90
27645;DHT22;15054;57.152;-2.118;2022-07-05T16:03:29;16.80;99.90
27645;DHT22;15054;57.152;-2.118;2022-07-05T16:05:57;16.70;99.90